Time;durP1;ratioP1;P1;durP2;ratioP2;P2;SDS_P1;SDS_P2;PMS_P1;PMS_P2;Temp;Humidity;BMP_temperature;BMP_pressure;BME280_temperature;BME280_humidity;BME280_pressure;Samples;Min_cycle;Max_cycle;Signal;HPM_P1;HPM_P2
2022/04/06 00:00:24;;;;;;;27.10;10.65;;;;;;;;;;5057600;28;20067;-94
2022/04/06 00:02:50;;;;;;;22.65;10.73;;;;;;;;;;5057732;28;20047;-93
2022/04/06 00:05:17;;;;;;;27.73;11.02;;;;;;;;;;5057617;28;20057;-93
2022/04/06 00:07:43;;;;;;;25.23;11.07;;;;;;;;;;5057997;28;20040;-96
2022/04/06 00:10:12;;;;;;;21.65;10.93;;;;;;;;;;5057877;28;20433;-94
2022/04/06 00:12:38;;;;;;;24.23;11.60;;;;;;;;;;5057859;28;20048;-94
2022/04/06 00:15:06;;;;;;;26.33;12.70;;;;;;;;;;5057468;28;20112;-94
2022/04/06 00:17:32;;;;;;;24.58;12.65;;;;;;;;;;5040818;28;20044;-93
2022/04/06 00:19:58;;;;;;;28.80;11.38;;;;;;;;;;5058374;28;20480;-95
2022/04/06 00:22:24;;;;;;;21.75;11.65;;;;;;;;;;5041629;28;20064;-94
2022/04/06 00:24:51;;;;;;;28.73;12.35;;;;;;;;;;5040967;28;20423;-96
2022/04/06 00:27:18;;;;;;;34.83;13.02;;;;;;;;;;5057427;28;20044;-94
2022/04/06 00:29:44;;;;;;;30.75;12.73;;;;;;;;;;5057125;28;20037;-94
2022/04/06 00:32:10;;;;;;;27.25;13.02;;;;;;;;;;5057142;28;20036;-95
2022/04/06 00:37:20;;;;;;;30.55;13.13;;;;;;;;;;5057388;28;20083;-94
2022/04/06 00:39:46;;;;;;;29.63;11.75;;;;;;;;;;5056977;28;20045;-94
2022/04/06 00:42:12;;;;;;;30.63;13.68;;;;;;;;;;5040071;28;20044;-94
2022/04/06 00:44:39;;;;;;;28.98;12.25;;;;;;;;;;5040331;28;20056;-94
2022/04/06 00:47:06;;;;;;;30.65;13.35;;;;;;;;;;5056777;28;20072;-93
2022/04/06 00:49:32;;;;;;;26.33;12.52;;;;;;;;;;5057462;28;20051;-93
2022/04/06 00:52:00;;;;;;;32.75;13.93;;;;;;;;;;5056967;28;20043;-92
2022/04/06 00:54:26;;;;;;;32.65;12.40;;;;;;;;;;5056707;28;20373;-95
2022/04/06 00:56:52;;;;;;;28.10;12.90;;;;;;;;;;5056545;28;20044;-91
2022/04/06 00:59:18;;;;;;;26.98;12.30;;;;;;;;;;5058106;28;20105;-94
2022/04/06 01:01:48;;;;;;;24.70;11.10;;;;;;;;;;5056380;28;20045;-94
2022/04/06 01:04:15;;;;;;;27.15;11.68;;;;;;;;;;5056792;28;20492;-93
2022/04/06 01:06:41;;;;;;;35.05;12.38;;;;;;;;;;5039726;28;20200;-94
2022/04/06 01:09:07;;;;;;;35.05;11.80;;;;;;;;;;5056476;28;20037;-92
2022/04/06 01:11:34;;;;;;;27.52;11.23;;;;;;;;;;5056816;28;20048;-95
2022/04/06 01:14:01;;;;;;;24.08;11.32;;;;;;;;;;5056226;28;20050;-94
2022/04/06 01:16:27;;;;;;;26.45;10.80;;;;;;;;;;5056432;28;20048;-95
2022/04/06 01:18:53;;;;;;;26.00;10.40;;;;;;;;;;5056517;28;20044;-95
2022/04/06 01:21:19;;;;;;;25.10;10.63;;;;;;;;;;5056132;28;20087;-95
2022/04/06 01:23:45;;;;;;;31.25;11.40;;;;;;;;;;5056304;28;20484;-94
2022/04/06 01:26:12;;;;;;;25.52;10.80;;;;;;;;;;5055964;28;20547;-91
2022/04/06 01:28:39;;;;;;;28.42;11.05;;;;;;;;;;5056322;28;20037;-93
2022/04/06 01:31:05;;;;;;;28.48;10.50;;;;;;;;;;5055645;28;20044;-92
2022/04/06 01:33:31;;;;;;;24.23;8.90;;;;;;;;;;5055894;28;20459;-91
2022/04/06 01:35:58;;;;;;;21.33;8.98;;;;;;;;;;5039305;28;20051;-91
2022/04/06 01:38:24;;;;;;;23.38;9.07;;;;;;;;;;5056140;28;20047;-92
2022/04/06 01:40:50;;;;;;;22.83;9.25;;;;;;;;;;5055903;28;20475;-91
2022/04/06 01:43:16;;;;;;;23.83;9.57;;;;;;;;;;5055983;28;20045;-92
2022/04/06 01:45:42;;;;;;;25.92;8.55;;;;;;;;;;5052385;28;20057;-91
2022/04/06 01:48:08;;;;;;;22.00;9.27;;;;;;;;;;5052658;28;20048;-92
2022/04/06 01:53:19;;;;;;;16.92;8.30;;;;;;;;;;5052393;28;20055;-91
2022/04/06 01:55:45;;;;;;;17.35;8.15;;;;;;;;;;5052386;28;20131;-89
2022/04/06 01:58:12;;;;;;;19.05;8.15;;;;;;;;;;5052584;28;20044;-91
2022/04/06 02:00:38;;;;;;;18.67;7.88;;;;;;;;;;5052627;28;20498;-91
2022/04/06 02:03:04;;;;;;;17.30;7.80;;;;;;;;;;5052570;28;20037;-92
2022/04/06 02:05:32;;;;;;;17.88;6.97;;;;;;;;;;5052421;28;20037;-92
2022/04/06 02:07:59;;;;;;;17.10;7.28;;;;;;;;;;5052141;28;20041;-91
2022/04/06 02:10:25;;;;;;;18.85;8.02;;;;;;;;;;5052685;28;20550;-92
2022/04/06 02:12:55;;;;;;;18.13;7.38;;;;;;;;;;5051996;28;20175;-90
2022/04/06 02:15:22;;;;;;;18.13;8.48;;;;;;;;;;5052151;28;20132;-90
2022/04/06 02:17:48;;;;;;;22.45;8.75;;;;;;;;;;5035214;28;20047;-91
2022/04/06 02:20:15;;;;;;;17.15;7.80;;;;;;;;;;5052042;28;20126;-92
2022/04/06 02:22:43;;;;;;;16.77;7.70;;;;;;;;;;5052674;28;20072;-91
2022/04/06 02:25:10;;;;;;;17.80;8.23;;;;;;;;;;5052818;28;20404;-92
2022/04/06 02:27:49;;;;;;;18.58;8.05;;;;;;;;;;5052033;28;20123;-92
2022/04/06 02:30:16;;;;;;;18.77;7.30;;;;;;;;;;5052838;28;20086;-90
2022/04/06 02:32:42;;;;;;;17.23;7.82;;;;;;;;;;5051724;28;20045;-92
2022/04/06 02:35:08;;;;;;;18.70;7.28;;;;;;;;;;5052459;28;20538;-92
2022/04/06 02:37:35;;;;;;;14.05;6.65;;;;;;;;;;5051975;28;20037;-91
2022/04/06 02:40:01;;;;;;;17.23;5.95;;;;;;;;;;5052084;28;20052;-90
2022/04/06 02:42:26;;;;;;;20.40;6.22;;;;;;;;;;5052018;28;20095;-91
2022/04/06 02:44:53;;;;;;;16.73;5.90;;;;;;;;;;5058657;28;20037;-90
2022/04/06 02:47:19;;;;;;;15.20;5.18;;;;;;;;;;5059067;28;20052;-89
2022/04/06 02:49:45;;;;;;;18.55;5.43;;;;;;;;;;5059455;28;20040;-91
2022/04/06 02:52:11;;;;;;;16.70;5.20;;;;;;;;;;5059375;28;20040;-92
2022/04/06 02:54:37;;;;;;;12.68;4.93;;;;;;;;;;5059248;28;20045;-92
2022/04/06 02:57:03;;;;;;;17.33;5.22;;;;;;;;;;5042466;28;20498;-91
2022/04/06 02:59:29;;;;;;;15.23;5.10;;;;;;;;;;5059231;28;20063;-91
2022/04/06 03:01:55;;;;;;;12.27;4.53;;;;;;;;;;5058975;28;20342;-93
2022/04/06 03:04:21;;;;;;;14.38;5.18;;;;;;;;;;5058744;28;20191;-91
2022/04/06 03:06:47;;;;;;;11.23;4.65;;;;;;;;;;5058575;28;20127;-92
2022/04/06 03:09:13;;;;;;;14.48;4.85;;;;;;;;;;5058607;28;20059;-91
2022/04/06 03:11:39;;;;;;;17.50;4.50;;;;;;;;;;5042229;28;20048;-91
2022/04/06 03:14:05;;;;;;;16.05;4.53;;;;;;;;;;5058464;28;20124;-91
2022/04/06 03:16:31;;;;;;;9.88;4.13;;;;;;;;;;5058581;28;20090;-91
2022/04/06 03:18:57;;;;;;;13.85;4.53;;;;;;;;;;5058610;28;20564;-90
2022/04/06 03:21:23;;;;;;;13.82;4.47;;;;;;;;;;5041827;28;20120;-88
2022/04/06 03:23:49;;;;;;;10.57;3.83;;;;;;;;;;5041649;28;20032;-91
2022/04/06 03:26:15;;;;;;;13.10;3.90;;;;;;;;;;5058482;28;20048;-91
2022/04/06 03:28:41;;;;;;;13.40;4.35;;;;;;;;;;5058341;28;20037;-91
2022/04/06 03:31:07;;;;;;;11.80;4.68;;;;;;;;;;5058305;28;20040;-91
2022/04/06 03:33:34;;;;;;;10.50;4.10;;;;;;;;;;5041404;28;20080;-89
2022/04/06 03:36:00;;;;;;;14.18;4.53;;;;;;;;;;5041612;28;20040;-90
2022/04/06 03:38:26;;;;;;;13.07;4.35;;;;;;;;;;5058057;28;20044;-93
2022/04/06 03:40:52;;;;;;;17.20;5.57;;;;;;;;;;5058372;28;20510;-92
2022/04/06 03:43:18;;;;;;;16.63;5.38;;;;;;;;;;5057993;28;20040;-91
2022/04/06 03:45:44;;;;;;;19.65;5.53;;;;;;;;;;5058168;28;20052;-92
2022/04/06 03:48:10;;;;;;;18.27;6.18;;;;;;;;;;5058132;28;20553;-90
2022/04/06 03:50:36;;;;;;;16.33;6.30;;;;;;;;;;5042278;28;20048;-91
2022/04/06 03:53:02;;;;;;;16.33;5.78;;;;;;;;;;5058567;28;20097;-92
2022/04/06 03:55:28;;;;;;;17.30;6.20;;;;;;;;;;5057833;28;20040;-92
2022/04/06 03:57:54;;;;;;;14.57;6.20;;;;;;;;;;5057645;28;20040;-90
2022/04/06 04:00:20;;;;;;;19.77;6.57;;;;;;;;;;5057727;28;20048;-91
2022/04/06 04:02:46;;;;;;;21.35;7.25;;;;;;;;;;5057543;28;20037;-91
2022/04/06 04:05:13;;;;;;;18.05;7.10;;;;;;;;;;5057803;28;20048;-91
2022/04/06 04:07:39;;;;;;;19.00;6.82;;;;;;;;;;5040910;28;20040;-93
2022/04/06 04:10:09;;;;;;;22.60;7.65;;;;;;;;;;5057549;28;20086;-90
2022/04/06 04:12:35;;;;;;;22.25;8.48;;;;;;;;;;5057276;28;20143;-90
2022/04/06 04:15:01;;;;;;;20.23;8.30;;;;;;;;;;5057914;28;20037;-90
2022/04/06 04:17:28;;;;;;;27.77;8.82;;;;;;;;;;5057193;28;20032;-90
2022/04/06 04:19:54;;;;;;;27.15;9.20;;;;;;;;;;5057443;28;20040;-91
2022/04/06 04:22:20;;;;;;;22.48;8.88;;;;;;;;;;5056977;28;20044;-93
2022/04/06 04:24:46;;;;;;;24.05;9.60;;;;;;;;;;5040711;28;20181;-90
2022/04/06 04:27:12;;;;;;;23.55;8.90;;;;;;;;;;5057287;28;20048;-91
2022/04/06 04:29:38;;;;;;;22.67;9.10;;;;;;;;;;5057599;28;20039;-91
2022/04/06 04:32:04;;;;;;;26.38;9.13;;;;;;;;;;5057270;28;20396;-92
2022/04/06 04:34:30;;;;;;;19.27;9.13;;;;;;;;;;5057098;28;20063;-92
2022/04/06 04:36:57;;;;;;;22.67;9.20;;;;;;;;;;5057693;28;20048;-92
2022/04/06 04:39:23;;;;;;;23.83;9.80;;;;;;;;;;5056863;28;20044;-92
2022/04/06 04:41:49;;;;;;;21.80;9.13;;;;;;;;;;5056763;28;20084;-93
2022/04/06 04:44:15;;;;;;;24.00;9.68;;;;;;;;;;5056723;28;20059;-91
2022/04/06 04:46:41;;;;;;;19.17;8.23;;;;;;;;;;5056975;28;20080;-92
2022/04/06 04:49:07;;;;;;;24.65;9.07;;;;;;;;;;5040153;28;20074;-91
2022/04/06 04:51:33;;;;;;;21.95;8.23;;;;;;;;;;5040516;28;20050;-90
2022/04/06 04:53:59;;;;;;;21.42;8.55;;;;;;;;;;5056893;28;20040;-91
2022/04/06 04:56:28;;;;;;;21.40;7.82;;;;;;;;;;5039764;28;20047;-91
2022/04/06 04:58:54;;;;;;;24.23;8.40;;;;;;;;;;5056912;28;20472;-90
2022/04/06 05:01:20;;;;;;;25.55;8.45;;;;;;;;;;5056263;28;20036;-89
2022/04/06 05:03:47;;;;;;;25.95;7.70;;;;;;;;;;5056120;28;20480;-88
2022/04/06 05:06:13;;;;;;;20.10;7.50;;;;;;;;;;5055836;28;20472;-90
2022/04/06 05:08:39;;;;;;;20.17;7.25;;;;;;;;;;5056252;28;20041;-92
2022/04/06 05:11:05;;;;;;;23.70;7.78;;;;;;;;;;5056393;28;20040;-91
2022/04/06 05:13:31;;;;;;;18.38;6.38;;;;;;;;;;5056242;28;20043;-90
2022/04/06 05:15:57;;;;;;;22.90;7.10;;;;;;;;;;5056186;28;20048;-91
2022/04/06 05:18:23;;;;;;;21.17;6.30;;;;;;;;;;5057316;28;20041;-90
2022/04/06 05:20:50;;;;;;;15.85;5.90;;;;;;;;;;5056377;28;20037;-92
2022/04/06 05:23:16;;;;;;;17.75;5.93;;;;;;;;;;5039109;28;20047;-90
2022/04/06 05:25:42;;;;;;;15.02;5.95;;;;;;;;;;5039395;28;20037;-92
2022/04/06 05:28:08;;;;;;;26.52;6.13;;;;;;;;;;5055860;28;20036;-89
2022/04/06 05:30:38;;;;;;;14.57;5.25;;;;;;;;;;5056016;28;20442;-91
2022/04/06 05:33:07;;;;;;;17.02;5.65;;;;;;;;;;5039659;28;20487;-91
2022/04/06 05:35:33;;;;;;;18.70;5.22;;;;;;;;;;5056350;28;20044;-90
2022/04/06 05:37:59;;;;;;;17.45;5.32;;;;;;;;;;5056081;28;20283;-92
2022/04/06 05:40:25;;;;;;;12.85;4.30;;;;;;;;;;5056117;28;20162;-90
2022/04/06 05:42:51;;;;;;;19.35;4.55;;;;;;;;;;5039567;28;20384;-91
2022/04/06 05:45:18;;;;;;;15.07;5.55;;;;;;;;;;5055726;28;20053;-92
2022/04/06 05:47:44;;;;;;;11.60;4.57;;;;;;;;;;5053935;28;20040;-93
2022/04/06 05:50:10;;;;;;;17.10;4.43;;;;;;;;;;5025454;28;20115;-94
2022/04/06 05:52:36;;;;;;;11.73;3.65;;;;;;;;;;5046884;28;20040;-93
2022/04/06 05:55:03;;;;;;;14.82;4.70;;;;;;;;;;5042198;28;20471;-94
2022/04/06 05:57:29;;;;;;;11.52;4.05;;;;;;;;;;5039435;28;20258;-93
2022/04/06 05:59:55;;;;;;;15.50;4.50;;;;;;;;;;5043750;28;20032;-92
2022/04/06 06:02:24;;;;;;;13.80;3.95;;;;;;;;;;5048921;28;20064;-93
2022/04/06 06:04:50;;;;;;;13.25;4.28;;;;;;;;;;5028902;28;20036;-93
2022/04/06 06:07:18;;;;;;;14.45;4.18;;;;;;;;;;5050665;28;20071;-94
2022/04/06 06:09:44;;;;;;;15.48;4.47;;;;;;;;;;5039094;28;20442;-93
2022/04/06 06:12:10;;;;;;;11.45;3.33;;;;;;;;;;5037681;28;20041;-92
2022/04/06 06:14:36;;;;;;;13.65;3.72;;;;;;;;;;5051896;28;20602;-92
2022/04/06 06:17:02;;;;;;;12.65;3.88;;;;;;;;;;5046133;28;20045;-92
2022/04/06 06:19:28;;;;;;;18.55;3.70;;;;;;;;;;5031371;28;20152;-92
2022/04/06 06:21:54;;;;;;;11.68;3.20;;;;;;;;;;5049300;28;20053;-92
2022/04/06 06:24:24;;;;;;;11.10;3.55;;;;;;;;;;5054177;28;20404;-91
2022/04/06 06:26:50;;;;;;;13.40;4.00;;;;;;;;;;5050214;28;20456;-92
2022/04/06 06:29:16;;;;;;;13.75;3.90;;;;;;;;;;5049814;28;20119;-92
2022/04/06 06:31:42;;;;;;;12.20;3.70;;;;;;;;;;5042728;28;20066;-94
2022/04/06 06:34:08;;;;;;;12.27;3.45;;;;;;;;;;5051648;28;20037;-95
2022/04/06 06:36:34;;;;;;;10.57;3.25;;;;;;;;;;5038688;28;20125;-93
2022/04/06 06:39:00;;;;;;;8.80;3.13;;;;;;;;;;5036228;28;20522;-92
2022/04/06 06:41:26;;;;;;;12.65;3.13;;;;;;;;;;5038832;28;20045;-92
2022/04/06 06:43:53;;;;;;;9.90;3.35;;;;;;;;;;5038962;28;20040;-92
2022/04/06 06:46:20;;;;;;;11.15;3.13;;;;;;;;;;5053846;28;20390;-93
2022/04/06 06:48:46;;;;;;;11.75;3.63;;;;;;;;;;5042063;28;20452;-94
2022/04/06 06:51:13;;;;;;;9.82;2.83;;;;;;;;;;5072652;28;20146;-91
2022/04/06 06:53:39;;;;;;;10.35;3.22;;;;;;;;;;5040561;28;20083;-94
2022/04/06 06:56:05;;;;;;;10.38;2.83;;;;;;;;;;5047544;28;20068;-94
2022/04/06 06:58:31;;;;;;;13.02;2.72;;;;;;;;;;5042893;28;20400;-93
2022/04/06 07:00:57;;;;;;;10.07;2.85;;;;;;;;;;5052862;28;20369;-91
2022/04/06 07:03:23;;;;;;;10.05;2.80;;;;;;;;;;5049678;28;20043;-93
2022/04/06 07:05:49;;;;;;;10.60;2.65;;;;;;;;;;5046654;28;20044;-94
2022/04/06 07:08:16;;;;;;;9.20;2.42;;;;;;;;;;5041415;28;20036;-93
2022/04/06 07:10:45;;;;;;;11.00;3.28;;;;;;;;;;5037209;28;20036;-95
2022/04/06 07:13:12;;;;;;;12.18;2.42;;;;;;;;;;5044144;28;20048;-92
2022/04/06 07:15:39;;;;;;;8.50;2.40;;;;;;;;;;5049351;28;20041;-93
2022/04/06 07:18:07;;;;;;;8.20;2.50;;;;;;;;;;5056144;28;20234;-93
2022/04/06 07:20:35;;;;;;;8.38;2.63;;;;;;;;;;5054367;28;20106;-93
2022/04/06 07:23:01;;;;;;;12.50;3.25;;;;;;;;;;5030971;28;20093;-92
2022/04/06 07:25:27;;;;;;;14.02;3.13;;;;;;;;;;5024521;28;20110;-94
2022/04/06 07:27:53;;;;;;;9.88;3.00;;;;;;;;;;5056432;28;20488;-93
2022/04/06 07:30:19;;;;;;;14.70;2.90;;;;;;;;;;5034847;28;20043;-93
2022/04/06 07:32:45;;;;;;;11.63;3.55;;;;;;;;;;5039293;28;20044;-94
2022/04/06 07:35:11;;;;;;;11.30;3.47;;;;;;;;;;5029600;28;20392;-92
2022/04/06 07:37:38;;;;;;;12.52;3.13;;;;;;;;;;5055064;28;20033;-94
2022/04/06 07:40:05;;;;;;;13.85;3.70;;;;;;;;;;5037415;28;20403;-93
2022/04/06 07:42:31;;;;;;;11.52;3.05;;;;;;;;;;5037426;28;20045;-95
2022/04/06 07:44:57;;;;;;;11.35;3.38;;;;;;;;;;5037572;28;20097;-93
2022/04/06 07:47:30;;;;;;;9.75;3.42;;;;;;;;;;5045591;28;20102;-92
2022/04/06 07:49:58;;;;;;;15.43;3.65;;;;;;;;;;5034716;28;20141;-92
2022/04/06 07:52:24;;;;;;;15.70;3.58;;;;;;;;;;5042430;28;20087;-92
2022/04/06 07:54:50;;;;;;;9.32;3.58;;;;;;;;;;5045229;28;20040;-93
2022/04/06 07:57:16;;;;;;;13.93;3.95;;;;;;;;;;5021043;28;20041;-92
2022/04/06 07:59:42;;;;;;;14.00;3.38;;;;;;;;;;5027769;28;20039;-92
2022/04/06 08:02:08;;;;;;;13.52;3.97;;;;;;;;;;5040778;28;20041;-94
2022/04/06 08:04:34;;;;;;;11.32;3.63;;;;;;;;;;5036687;28;20041;-92
2022/04/06 08:07:00;;;;;;;14.85;3.70;;;;;;;;;;5036762;28;20480;-92
2022/04/06 08:09:26;;;;;;;13.23;3.80;;;;;;;;;;5043453;28;20451;-92
2022/04/06 08:11:52;;;;;;;11.88;3.72;;;;;;;;;;5037882;28;20045;-92
2022/04/06 08:14:17;;;;;;;18.33;4.55;;;;;;;;;;5042034;28;20052;-90
2022/04/06 08:16:43;;;;;;;18.35;3.78;;;;;;;;;;5074549;28;20041;-91
2022/04/06 08:19:09;;;;;;;12.02;3.75;;;;;;;;;;5057004;28;20119;-91
2022/04/06 08:21:36;;;;;;;12.00;3.50;;;;;;;;;;5056122;28;20487;-91
2022/04/06 08:24:03;;;;;;;14.65;4.32;;;;;;;;;;5056539;28;20468;-91
2022/04/06 08:26:31;;;;;;;14.25;3.65;;;;;;;;;;5056881;28;20040;-92
2022/04/06 08:28:57;;;;;;;13.25;4.35;;;;;;;;;;5056637;28;20383;-91
2022/04/06 08:31:23;;;;;;;11.70;3.75;;;;;;;;;;5056497;28;20056;-94
2022/04/06 08:33:52;;;;;;;14.38;4.55;;;;;;;;;;5056900;28;20400;-92
2022/04/06 08:36:18;;;;;;;11.18;3.78;;;;;;;;;;5074366;28;20047;-92
2022/04/06 08:38:47;;;;;;;15.10;3.80;;;;;;;;;;5056386;28;20053;-92
2022/04/06 08:41:14;;;;;;;11.48;3.55;;;;;;;;;;5055490;28;20504;-94
2022/04/06 08:43:53;;;;;;;9.73;3.63;;;;;;;;;;5074494;28;20142;-92
2022/04/06 08:46:23;;;;;;;15.23;3.50;;;;;;;;;;5074498;28;20131;-92
2022/04/06 08:48:49;;;;;;;12.32;3.78;;;;;;;;;;5059509;28;20399;-93
2022/04/06 08:51:16;;;;;;;16.60;4.65;;;;;;;;;;5056087;28;20041;-92
2022/04/06 08:53:43;;;;;;;11.63;3.75;;;;;;;;;;5039483;28;20044;-92
2022/04/06 08:56:12;;;;;;;11.00;3.33;;;;;;;;;;5056251;28;20122;-92
2022/04/06 08:58:38;;;;;;;11.50;3.30;;;;;;;;;;5056120;28;20051;-91
2022/04/06 09:01:04;;;;;;;14.73;3.78;;;;;;;;;;5055932;28;20048;-90
2022/04/06 09:03:30;;;;;;;12.65;3.58;;;;;;;;;;5039830;28;20058;-92
2022/04/06 09:06:03;;;;;;;15.55;3.70;;;;;;;;;;5055615;28;20479;-92
2022/04/06 09:08:43;;;;;;;10.80;3.55;;;;;;;;;;5038668;28;20048;-91
2022/04/06 09:11:13;;;;;;;15.02;3.40;;;;;;;;;;5055587;28;20079;-90
2022/04/06 09:13:41;;;;;;;11.82;3.33;;;;;;;;;;5055589;28;20043;-92
2022/04/06 09:16:11;;;;;;;11.23;3.22;;;;;;;;;;5055460;28;20050;-89
2022/04/06 09:18:42;;;;;;;11.65;3.40;;;;;;;;;;5055702;28;20056;-92
2022/04/06 09:21:09;;;;;;;11.20;3.75;;;;;;;;;;5038857;28;20044;-90
2022/04/06 09:23:35;;;;;;;13.55;3.95;;;;;;;;;;5055408;28;20039;-91
2022/04/06 09:26:03;;;;;;;16.40;3.65;;;;;;;;;;5055333;28;20079;-91
2022/04/06 09:28:29;;;;;;;15.23;3.45;;;;;;;;;;5038925;28;20126;-91
2022/04/06 09:30:55;;;;;;;12.57;3.92;;;;;;;;;;5055255;28;20055;-91
2022/04/06 09:33:22;;;;;;;12.40;3.63;;;;;;;;;;5055338;28;20040;-90
2022/04/06 09:35:49;;;;;;;13.23;3.33;;;;;;;;;;5055187;28;20044;-90
2022/04/06 09:38:26;;;;;;;12.10;3.67;;;;;;;;;;5037709;28;20099;-91
2022/04/06 09:41:11;;;;;;;17.35;3.60;;;;;;;;;;5055262;28;20051;-90
2022/04/06 09:43:37;;;;;;;14.40;3.47;;;;;;;;;;5039465;28;20045;-90
2022/04/06 09:49:02;;;;;;;12.45;3.80;;;;;;;;;;5030761;28;20050;-90
2022/04/06 09:51:29;;;;;;;11.00;3.65;;;;;;;;;;5033247;28;20046;-90
2022/04/06 09:53:55;;;;;;;10.85;3.08;;;;;;;;;;5017477;28;20102;-91
2022/04/06 09:56:21;;;;;;;13.02;3.40;;;;;;;;;;5018610;28;20087;-90
2022/04/06 09:58:48;;;;;;;10.32;2.92;;;;;;;;;;5034543;28;20465;-92
2022/04/06 10:01:15;;;;;;;9.73;3.63;;;;;;;;;;5036974;28;20404;-89
2022/04/06 10:03:45;;;;;;;11.98;4.00;;;;;;;;;;5035397;28;20051;-91
2022/04/06 10:06:11;;;;;;;12.27;3.38;;;;;;;;;;5034762;28;20087;-91
2022/04/06 10:08:39;;;;;;;10.88;3.67;;;;;;;;;;5035238;28;20135;-91
2022/04/06 10:11:05;;;;;;;13.13;3.10;;;;;;;;;;5034706;28;20081;-91
2022/04/06 10:13:32;;;;;;;10.63;3.53;;;;;;;;;;5034792;28;20044;-91
2022/04/06 10:15:58;;;;;;;16.95;3.97;;;;;;;;;;5017303;28;20059;-90
2022/04/06 10:18:26;;;;;;;12.43;3.95;;;;;;;;;;5018424;28;20120;-90
2022/04/06 10:20:55;;;;;;;10.55;3.60;;;;;;;;;;5034517;28;20045;-92
2022/04/06 10:23:21;;;;;;;18.83;4.20;;;;;;;;;;5034977;28;20511;-91
2022/04/06 10:26:06;;;;;;;13.77;4.35;;;;;;;;;;5052711;28;20041;-91
2022/04/06 10:28:35;;;;;;;17.42;4.68;;;;;;;;;;5053119;28;20067;-92
2022/04/06 10:31:22;;;;;;;14.82;3.63;;;;;;;;;;5035195;28;20045;-94
2022/04/06 10:33:50;;;;;;;13.15;4.45;;;;;;;;;;5018901;28;20258;-92
2022/04/06 10:36:20;;;;;;;15.25;4.53;;;;;;;;;;5035146;28;20084;-90
2022/04/06 10:39:08;;;;;;;15.45;4.50;;;;;;;;;;5030013;28;20555;-93
2022/04/06 10:41:39;;;;;;;13.73;4.72;;;;;;;;;;5018545;28;20042;-92
2022/04/06 10:44:05;;;;;;;11.63;4.13;;;;;;;;;;5034377;28;20045;-92
2022/04/06 10:46:41;;;;;;;13.65;3.92;;;;;;;;;;5017182;28;20061;-92
2022/04/06 10:49:17;;;;;;;;;;;;;;;;;;;;;
2022/04/06 10:51:48;;;;;;;14.88;4.25;;;;;;;;;;5042814;28;20049;-94
2022/04/06 10:57:44;;;;;;;15.02;5.03;;;;;;;;;;5049620;28;20046;-96
2022/04/06 11:00:17;;;;;;;19.50;5.75;;;;;;;;;;5044598;28;20029;-96
2022/04/06 11:02:52;;;;;;;14.05;6.15;;;;;;;;;;5039462;28;20403;-94
2022/04/06 11:05:45;;;;;;;16.67;5.60;;;;;;;;;;5047782;28;20128;-94
2022/04/06 11:11:58;;;;;;;18.92;5.95;;;;;;;;;;5059014;28;20103;-95
2022/04/06 11:21:08;;;;;;;19.23;7.28;;;;;;;;;;5067068;28;20049;-94
2022/04/06 11:24:05;;;;;;;;;;;;;;;;;;;;;
2022/04/06 11:29:33;;;;;;;16.13;5.65;;;;;;;;;;4860384;29;20050;-93
2022/04/06 11:35:34;;;;;;;;;;;;;;;;;;;;;
2022/04/06 11:41:35;;;;;;;;;;;;;;;;;;;;;
2022/04/06 11:44:04;;;;;;;15.68;5.57;;;;;;;;;;5049385;28;20082;-92
2022/04/06 11:46:30;;;;;;;16.38;5.95;;;;;;;;;;5020772;28;20118;-91
2022/04/06 11:48:56;;;;;;;19.65;6.43;;;;;;;;;;5036747;28;20414;-95
2022/04/06 11:51:22;;;;;;;15.52;6.18;;;;;;;;;;5037543;28;20041;-94
2022/04/06 11:53:48;;;;;;;14.68;5.55;;;;;;;;;;5020255;28;20091;-91
2022/04/06 11:56:20;;;;;;;19.23;6.63;;;;;;;;;;5037163;28;20037;-93
2022/04/06 11:58:48;;;;;;;20.13;6.45;;;;;;;;;;5036634;28;20041;-93
2022/04/06 12:01:27;;;;;;;15.05;6.20;;;;;;;;;;5020868;28;20045;-93
2022/04/06 12:03:58;;;;;;;18.13;5.40;;;;;;;;;;5020524;28;20511;-94
2022/04/06 12:06:31;;;;;;;14.43;5.75;;;;;;;;;;5037845;28;20476;-93
2022/04/06 12:08:57;;;;;;;15.63;5.97;;;;;;;;;;5036469;28;20044;-94
2022/04/06 12:11:23;;;;;;;14.52;5.93;;;;;;;;;;5037227;28;20045;-93
2022/04/06 12:13:49;;;;;;;15.23;5.93;;;;;;;;;;5034697;28;20391;-91
2022/04/06 12:16:15;;;;;;;16.85;5.80;;;;;;;;;;5037149;28;20041;-93
2022/04/06 12:18:42;;;;;;;13.00;5.28;;;;;;;;;;5021031;28;20155;-94
2022/04/06 12:21:25;;;;;;;14.10;5.75;;;;;;;;;;5036151;28;20087;-92
2022/04/06 12:23:54;;;;;;;14.82;6.00;;;;;;;;;;5036469;28;20124;-94
2022/04/06 12:26:24;;;;;;;17.45;6.10;;;;;;;;;;5037070;28;20041;-92
2022/04/06 12:28:50;;;;;;;14.73;5.85;;;;;;;;;;5037293;28;20051;-93
2022/04/06 12:31:16;;;;;;;14.52;5.35;;;;;;;;;;5020943;28;20041;-91
2022/04/06 12:33:44;;;;;;;15.25;5.60;;;;;;;;;;5019805;28;20519;-91
2022/04/06 12:36:19;;;;;;;11.40;5.85;;;;;;;;;;5035855;28;20040;-91
2022/04/06 12:38:45;;;;;;;;;;;;;;;;;;5028797;28;20051;-94
2022/04/06 12:41:12;;;;;;;12.40;4.90;;;;;;;;;;5022247;28;20000;-93
2022/04/06 12:43:45;;;;;;;13.38;5.55;;;;;;;;;;5000322;28;20096;-93
2022/04/06 12:46:11;;;;;;;13.88;5.45;;;;;;;;;;4997144;28;20058;-91
2022/04/06 12:48:37;;;;;;;13.23;4.82;;;;;;;;;;5016118;28;20546;-93
2022/04/06 12:51:21;;;;;;;16.05;5.50;;;;;;;;;;5017041;28;20045;-93
2022/04/06 12:53:50;;;;;;;16.08;5.25;;;;;;;;;;5020175;28;20526;-93
2022/04/06 12:56:22;;;;;;;14.43;4.72;;;;;;;;;;5054242;28;20041;-93
2022/04/06 12:59:06;;;;;;;11.75;4.90;;;;;;;;;;5036445;28;20124;-90
2022/04/06 13:01:32;;;;;;;12.55;5.25;;;;;;;;;;5036668;28;20456;-89
2022/04/06 13:03:58;;;;;;;15.35;5.45;;;;;;;;;;5036167;28;20037;-91
2022/04/06 13:06:24;;;;;;;14.63;5.00;;;;;;;;;;5020067;28;20041;-90
2022/04/06 13:08:50;;;;;;;14.50;5.60;;;;;;;;;;5036509;28;20128;-90
2022/04/06 13:11:16;;;;;;;14.98;5.10;;;;;;;;;;5054294;28;20044;-90
2022/04/06 13:13:42;;;;;;;13.38;5.80;;;;;;;;;;5019582;28;20052;-90
2022/04/06 13:16:08;;;;;;;20.52;6.35;;;;;;;;;;5035025;28;20045;-90
2022/04/06 13:18:34;;;;;;;18.33;5.65;;;;;;;;;;5036460;28;20102;-91
2022/04/06 13:21:00;;;;;;;14.38;4.13;;;;;;;;;;5034867;28;20048;-92
2022/04/06 13:23:26;;;;;;;15.43;5.57;;;;;;;;;;5019525;28;20041;-91
2022/04/06 13:25:52;;;;;;;15.75;4.18;;;;;;;;;;5018112;28;20037;-90
2022/04/06 13:28:19;;;;;;;16.08;4.22;;;;;;;;;;5035490;28;20044;-89
2022/04/06 13:30:45;;;;;;;12.18;3.75;;;;;;;;;;5032935;28;20045;-90
2022/04/06 13:33:11;;;;;;;10.52;2.97;;;;;;;;;;5035812;28;20449;-90
2022/04/06 13:35:37;;;;;;;12.25;2.15;;;;;;;;;;5035300;28;20365;-91
2022/04/06 13:38:03;;;;;;;11.15;2.38;;;;;;;;;;5035559;28;20052;-91
2022/04/06 13:40:29;;;;;;;8.85;2.47;;;;;;;;;;5018633;28;20044;-90
2022/04/06 13:42:55;;;;;;;7.60;2.28;;;;;;;;;;5019071;28;20033;-91
2022/04/06 13:45:21;;;;;;;11.88;2.40;;;;;;;;;;5053108;28;20057;-89
2022/04/06 13:47:47;;;;;;;11.48;2.22;;;;;;;;;;5051842;28;20044;-90
2022/04/06 13:50:14;;;;;;;10.68;2.25;;;;;;;;;;5051075;28;20037;-89
2022/04/06 13:52:39;;;;;;;11.05;2.13;;;;;;;;;;5052159;28;20045;-89
2022/04/06 13:55:06;;;;;;;10.85;2.40;;;;;;;;;;5052155;28;20060;-89
2022/04/06 13:57:33;;;;;;;12.50;3.35;;;;;;;;;;5051968;28;20037;-89
2022/04/06 13:59:58;;;;;;;8.05;3.38;;;;;;;;;;5051841;28;20116;-90
2022/04/06 14:02:24;;;;;;;12.98;4.00;;;;;;;;;;5051739;28;20133;-89
2022/04/06 14:04:51;;;;;;;12.82;4.32;;;;;;;;;;5051731;28;20082;-89
2022/04/06 14:07:17;;;;;;;9.57;3.05;;;;;;;;;;5051338;28;20041;-88
2022/04/06 14:09:43;;;;;;;7.28;1.80;;;;;;;;;;5052331;28;20097;-90
2022/04/06 14:12:14;;;;;;;7.18;1.75;;;;;;;;;;5051620;28;20041;-90
2022/04/06 14:14:40;;;;;;;8.60;1.80;;;;;;;;;;5051962;28;20397;-90
2022/04/06 14:17:06;;;;;;;8.63;1.48;;;;;;;;;;5033813;28;20045;-90
2022/04/06 14:19:32;;;;;;;6.60;1.80;;;;;;;;;;5018860;28;20590;-90
2022/04/06 14:21:58;;;;;;;10.05;2.03;;;;;;;;;;5033897;28;20041;-90
2022/04/06 14:24:24;;;;;;;7.25;2.20;;;;;;;;;;5018399;28;20484;-91
2022/04/06 14:26:50;;;;;;;5.60;1.30;;;;;;;;;;5017862;28;20045;-89
2022/04/06 14:29:16;;;;;;;6.10;1.30;;;;;;;;;;5034872;28;20033;-89
2022/04/06 14:31:42;;;;;;;9.43;1.63;;;;;;;;;;5034734;28;20048;-90
2022/04/06 14:34:09;;;;;;;5.07;1.20;;;;;;;;;;5034675;28;20048;-89
2022/04/06 14:36:36;;;;;;;7.00;1.02;;;;;;;;;;5040645;28;20067;-90
2022/04/06 14:39:02;;;;;;;3.00;0.77;;;;;;;;;;5054531;28;20073;-89
2022/04/06 14:41:29;;;;;;;3.47;0.80;;;;;;;;;;5054627;28;20037;-91
2022/04/06 14:43:55;;;;;;;5.75;1.17;;;;;;;;;;5055163;28;20395;-90
2022/04/06 14:46:22;;;;;;;4.97;1.15;;;;;;;;;;5046232;28;20334;-91
2022/04/06 14:48:48;;;;;;;3.63;1.10;;;;;;;;;;5022020;28;20479;-90
2022/04/06 14:51:14;;;;;;;4.78;1.30;;;;;;;;;;5021489;28;20052;-90
2022/04/06 14:53:40;;;;;;;3.97;1.30;;;;;;;;;;5038635;28;20502;-90
2022/04/06 14:56:06;;;;;;;4.30;1.27;;;;;;;;;;5030197;28;20033;-88
2022/04/06 14:58:32;;;;;;;5.72;2.05;;;;;;;;;;5036038;28;20132;-89
2022/04/06 15:00:58;;;;;;;4.40;1.50;;;;;;;;;;5053229;28;20041;-88
2022/04/06 15:03:24;;;;;;;4.43;1.75;;;;;;;;;;5038315;28;20044;-88
2022/04/06 15:05:50;;;;;;;4.78;1.63;;;;;;;;;;5038483;28;20056;-88